createdAt,value
2019-04-26T11:24:15.109Z,9.70
2019-04-26T11:25:28.179Z,9.60
2019-04-26T11:26:42.692Z,9.40
2019-04-26T11:27:56.320Z,9.30
2019-04-26T11:29:09.578Z,9.30
2019-04-26T11:30:22.856Z,9.20
2019-04-26T11:31:36.175Z,9.20
2019-04-26T11:32:49.453Z,9.20
2019-04-26T11:34:05.570Z,9.30
2019-04-26T11:35:17.675Z,9.30
2019-04-26T11:36:31.028Z,9.40
2019-04-26T11:37:46.267Z,9.30
2019-04-26T11:39:01.354Z,9.30
2019-04-26T11:40:15.612Z,9.30
2019-04-26T11:41:29.041Z,9.30
2019-04-26T11:42:45.667Z,9.30
2019-04-26T11:43:57.289Z,9.50
2019-04-26T11:45:14.584Z,9.40
2019-04-26T11:46:29.155Z,9.20
2019-04-26T11:47:49.087Z,9.10
2019-04-26T11:48:59.288Z,9.00
2019-04-26T11:50:12.399Z,9.10
2019-04-26T11:51:27.627Z,9.00
2019-04-26T11:52:41.464Z,9.00
2019-04-26T11:53:54.719Z,8.80
2019-04-26T11:55:07.981Z,8.80
2019-04-26T11:56:21.249Z,8.80
2019-04-26T11:57:34.522Z,8.70
2019-04-26T11:58:47.772Z,8.70
2019-04-26T12:00:01.414Z,8.70
2019-04-26T12:01:17.653Z,8.50
2019-04-26T12:02:32.559Z,8.40
2019-04-26T12:03:59.426Z,8.40
2019-04-26T12:05:29.519Z,8.30
2019-04-26T12:06:47.144Z,8.30
2019-04-26T12:08:02.136Z,8.40
2019-04-26T12:09:20.082Z,8.40
2019-04-26T12:10:33.341Z,8.40
2019-04-26T12:11:49.625Z,8.30
2019-04-26T12:13:05.818Z,8.30
2019-04-26T12:14:20.387Z,8.20
2019-04-26T12:15:31.555Z,8.10
2019-04-26T12:16:49.420Z,8.10
2019-04-26T12:17:59.840Z,8.10
2019-04-26T12:19:14.295Z,8.00
2019-04-26T12:20:28.462Z,8.00
2019-04-26T12:21:41.870Z,8.00
2019-04-26T12:22:55.385Z,8.10
2019-04-26T12:24:08.669Z,8.20
2019-04-26T12:25:21.922Z,8.30
2019-04-26T12:26:42.663Z,8.30
2019-04-26T12:27:53.350Z,8.30
2019-04-26T12:29:05.129Z,8.30
2019-04-26T12:30:18.411Z,8.20
2019-04-26T12:31:32.418Z,8.10
2019-04-26T12:32:45.701Z,8.20
2019-04-26T12:33:59.021Z,8.10
2019-04-26T12:35:12.272Z,8.00
2019-04-26T12:36:25.552Z,8.00
2019-04-26T12:37:38.883Z,8.10
2019-04-26T12:38:52.144Z,7.90
2019-04-26T12:40:07.234Z,7.80
2019-04-26T12:41:36.559Z,7.70
2019-04-26T12:42:35.912Z,7.70
2019-04-26T12:43:49.168Z,7.60
2019-04-26T12:45:16.670Z,7.60
2019-04-26T12:46:35.765Z,7.50
2019-04-26T12:47:53.435Z,7.50
2019-04-26T12:49:06.698Z,7.50
2019-04-26T12:50:19.956Z,7.50
2019-04-26T12:51:33.836Z,7.50
2019-04-26T12:52:47.140Z,7.50
2019-04-26T12:54:03.747Z,7.50
2019-04-26T12:55:18.330Z,7.40
2019-04-26T12:56:31.270Z,7.40
2019-04-26T12:57:45.601Z,7.50
2019-04-26T12:58:58.883Z,7.50
2019-04-26T13:00:13.778Z,7.50
2019-04-26T13:01:27.028Z,7.40
2019-04-26T13:02:40.284Z,7.50
2019-04-26T13:04:07.279Z,7.50
2019-04-26T13:05:20.656Z,7.50
2019-04-26T13:06:36.349Z,7.60
2019-04-26T13:07:53.735Z,7.50
2019-04-26T13:09:11.885Z,7.60
2019-04-26T13:10:44.888Z,7.60
2019-04-26T13:11:59.402Z,7.50
2019-04-26T13:13:14.300Z,7.50
2019-04-26T13:14:45.266Z,7.50
2019-04-26T13:16:12.212Z,7.40
2019-04-26T13:17:37.409Z,7.40
2019-04-26T13:18:50.762Z,7.30
2019-04-26T13:20:05.964Z,7.30
2019-04-26T13:21:19.240Z,7.20
2019-04-26T13:22:45.306Z,7.20
2019-04-26T13:23:48.254Z,7.20
2019-04-26T13:25:01.725Z,7.30
2019-04-26T13:26:15.059Z,7.30
2019-04-26T13:27:28.404Z,7.30
2019-04-26T13:28:41.659Z,7.10
2019-04-26T13:30:02.605Z,7.10
2019-04-26T13:31:10.136Z,7.10
2019-04-26T13:32:23.400Z,7.10
2019-04-26T13:33:36.677Z,7.00
2019-04-26T13:34:49.955Z,6.90
2019-04-26T13:38:29.824Z,6.90
2019-04-26T13:42:13.641Z,7.00
2019-04-26T13:43:26.958Z,7.00
2019-04-26T13:44:51.503Z,7.10
2019-04-26T13:46:15.511Z,7.10
2019-04-26T13:47:36.159Z,7.20
2019-04-26T13:48:54.040Z,7.40
2019-04-26T13:50:08.937Z,7.40
2019-04-26T13:51:32.735Z,7.40
2019-04-26T13:52:45.995Z,7.40
2019-04-26T13:53:59.270Z,7.50
2019-04-26T13:55:12.531Z,7.50
2019-04-26T13:56:25.780Z,7.40
2019-04-26T13:57:40.283Z,7.40
2019-04-26T14:00:11.693Z,7.30
2019-04-26T14:01:25.065Z,7.20
2019-04-26T14:02:38.327Z,7.20
2019-04-26T14:03:51.582Z,7.20
2019-04-26T14:05:05.105Z,7.10
2019-04-26T14:06:18.372Z,7.00
2019-04-26T14:07:31.629Z,6.90
2019-04-26T14:08:44.883Z,6.90
2019-04-26T14:09:58.140Z,6.90
2019-04-26T14:11:11.416Z,6.80
2019-04-26T14:12:24.671Z,6.80
2019-04-26T14:13:37.925Z,6.90
2019-04-26T14:14:51.185Z,6.90
2019-04-26T14:16:04.520Z,6.90
2019-04-26T14:17:17.875Z,6.90
2019-04-26T14:18:34.509Z,6.90
2019-04-26T14:19:49.515Z,6.90
2019-04-26T14:21:01.956Z,6.90
2019-04-26T14:22:16.865Z,6.80
2019-04-26T14:23:34.822Z,6.80
2019-04-26T14:24:52.995Z,6.80
2019-04-26T14:26:09.058Z,6.70
2019-04-26T14:27:23.946Z,6.70
2019-04-26T14:28:37.215Z,6.70
2019-04-26T14:29:50.576Z,6.60
2019-04-26T14:31:03.897Z,6.70
2019-04-26T14:32:17.164Z,6.70
2019-04-26T14:33:30.894Z,6.80
2019-04-26T14:34:45.424Z,6.80
2019-04-26T14:35:58.702Z,6.80
2019-04-26T14:37:15.575Z,6.70
2019-04-26T14:38:28.013Z,6.70
2019-04-26T14:39:50.321Z,6.70
2019-04-26T14:41:04.097Z,6.70
2019-04-26T14:42:11.924Z,6.70
2019-04-26T14:43:25.316Z,6.80
2019-04-26T14:44:48.857Z,6.80
2019-04-26T14:45:56.051Z,6.80
2019-04-26T14:47:14.879Z,6.90
2019-04-26T14:48:35.288Z,6.90
2019-04-26T14:49:41.409Z,6.90
2019-04-26T14:50:53.492Z,6.90
2019-04-26T14:52:06.773Z,6.90
2019-04-26T14:53:20.024Z,6.80
2019-04-26T14:54:34.008Z,6.80
2019-04-26T14:55:47.263Z,6.80
2019-04-26T14:57:07.122Z,6.80
2019-04-26T14:58:15.685Z,6.70
2019-04-26T14:59:46.964Z,6.70
2019-04-26T15:01:03.146Z,6.70
2019-04-26T15:02:34.211Z,6.70
2019-04-26T15:04:05.517Z,6.70
2019-04-26T15:05:22.950Z,6.70
2019-04-26T15:06:37.921Z,6.60
2019-04-26T15:07:53.564Z,6.60
2019-04-26T15:09:17.214Z,6.70
2019-04-26T15:10:22.783Z,6.70
2019-04-26T15:11:37.046Z,6.70
2019-04-26T15:12:56.701Z,6.70
2019-04-26T15:14:05.432Z,6.70
2019-04-26T15:15:18.765Z,6.80
2019-04-26T15:16:32.797Z,6.80
2019-04-26T15:17:47.538Z,6.80
2019-04-26T15:19:00.794Z,6.80
2019-04-26T15:20:16.780Z,6.80
2019-04-26T15:21:31.786Z,6.70
2019-04-26T15:22:48.545Z,6.70
2019-04-26T15:23:59.421Z,6.70
2019-04-26T15:25:13.670Z,6.70
2019-04-26T15:26:29.850Z,6.60
2019-04-26T15:27:42.139Z,6.60
2019-04-26T15:28:56.929Z,6.70
2019-04-26T15:30:10.256Z,6.70
2019-04-26T15:31:25.048Z,6.70
2019-04-26T15:32:39.029Z,6.70
2019-04-26T15:33:52.817Z,6.70
2019-04-26T15:35:06.213Z,6.70
2019-04-26T15:36:19.482Z,6.70
2019-04-26T15:37:32.816Z,6.80
2019-04-26T15:38:47.451Z,6.80
2019-04-26T15:40:12.722Z,6.80
2019-04-26T15:41:27.753Z,6.70
2019-04-26T15:42:45.635Z,6.70
2019-04-26T15:44:00.526Z,6.80
2019-04-26T15:45:15.446Z,6.70
2019-04-26T15:46:33.476Z,6.70
2019-04-26T15:47:54.529Z,6.70
2019-04-26T15:49:12.580Z,6.60
2019-04-26T15:50:41.013Z,6.70
2019-04-26T15:51:56.417Z,6.70
2019-04-26T15:53:12.766Z,6.60
2019-04-26T15:54:24.487Z,6.60
2019-04-26T15:55:40.090Z,6.60
2019-04-26T15:56:53.774Z,6.60
2019-04-26T15:58:08.474Z,6.60
2019-04-26T15:59:25.380Z,6.60
2019-04-26T16:00:37.757Z,6.70
2019-04-26T16:01:52.098Z,6.70
2019-04-26T16:03:07.313Z,6.80
2019-04-26T16:04:22.174Z,6.70
2019-04-26T16:05:35.436Z,6.70
2019-04-26T16:06:48.689Z,6.70
2019-04-26T16:08:20.216Z,6.70
2019-04-26T16:09:33.465Z,6.70
2019-04-26T16:10:46.729Z,6.70
2019-04-26T16:11:59.988Z,6.80
2019-04-26T16:13:21.059Z,6.80
2019-04-26T16:14:31.255Z,6.90
2019-04-26T16:15:48.342Z,6.80
2019-04-26T16:17:02.182Z,6.90
2019-04-26T16:18:17.043Z,6.90
2019-04-26T16:19:28.448Z,6.90
2019-04-26T16:20:42.840Z,7.00
2019-04-26T16:21:56.716Z,7.00
2019-04-26T16:23:09.994Z,7.10
2019-04-26T16:24:24.115Z,7.10
2019-04-26T16:25:39.192Z,7.20
2019-04-26T16:26:55.856Z,7.20
2019-04-26T16:28:25.593Z,7.30
2019-04-26T16:29:43.440Z,7.40
2019-04-26T16:31:10.952Z,7.40
2019-04-26T16:32:29.691Z,7.50
2019-04-26T16:33:44.846Z,7.50
2019-04-26T16:34:58.160Z,7.50
2019-04-26T16:36:11.479Z,7.60
2019-04-26T16:37:24.740Z,7.60
2019-04-26T16:38:38.391Z,7.70
2019-04-26T16:39:51.641Z,7.80
2019-04-26T16:41:05.221Z,7.70
2019-04-26T16:42:18.558Z,7.80
2019-04-26T16:43:37.696Z,7.70
2019-04-26T16:44:46.886Z,7.70
2019-04-26T16:46:00.186Z,7.70
2019-04-26T16:47:13.763Z,7.70
2019-04-26T16:48:27.160Z,7.80
2019-04-26T16:49:41.779Z,7.90
2019-04-26T16:50:55.411Z,8.00
2019-04-26T16:52:08.744Z,8.10
2019-04-26T16:53:37.951Z,8.30
2019-04-26T16:54:37.059Z,8.40
2019-04-26T16:57:11.214Z,8.50
2019-04-26T16:58:20.444Z,8.60
2019-04-26T16:59:34.169Z,8.70
2019-04-26T17:00:46.837Z,8.50
2019-04-26T17:00:59.516Z,8.80
2019-04-26T17:02:02.896Z,8.80
2019-04-26T17:03:16.362Z,9.00
2019-04-26T17:04:32.278Z,9.10
2019-04-26T17:05:48.328Z,9.00
2019-04-26T17:07:02.860Z,9.20
2019-04-26T17:08:18.971Z,9.20
2019-04-26T17:09:52.307Z,9.20
2019-04-26T17:10:44.770Z,9.00
2019-04-26T17:11:58.099Z,8.90
2019-04-26T17:13:13.149Z,8.80
2019-04-26T17:14:26.384Z,8.60
2019-04-26T17:15:39.654Z,8.40
2019-04-26T17:16:53.330Z,8.30
2019-04-26T17:18:06.738Z,8.20
2019-04-26T17:19:20.479Z,8.20
2019-04-26T17:20:33.987Z,8.10
2019-04-26T17:21:49.054Z,8.00
2019-04-26T17:23:23.987Z,8.00
2019-04-26T17:24:51.227Z,8.00
2019-04-26T17:26:09.082Z,7.90
2019-04-26T17:27:23.985Z,7.90
2019-04-26T17:28:37.588Z,7.80
2019-04-26T17:29:52.762Z,7.80
2019-04-26T17:31:06.192Z,7.80
2019-04-26T17:32:20.259Z,7.80
2019-04-26T17:33:33.539Z,7.80
2019-04-26T17:34:46.808Z,7.70
2019-04-26T17:36:00.078Z,7.70
2019-04-26T17:37:17.228Z,7.70
2019-04-26T17:38:28.633Z,7.70
2019-04-26T17:39:41.920Z,7.80
2019-04-26T17:40:55.168Z,7.80
2019-04-26T17:42:10.431Z,7.70
2019-04-26T17:43:23.794Z,7.70
2019-04-26T17:44:37.125Z,7.70
2019-04-26T17:45:51.635Z,7.70
2019-04-26T17:47:04.988Z,7.70
2019-04-26T17:48:18.253Z,7.60
2019-04-26T17:49:34.594Z,7.60
2019-04-26T17:50:46.914Z,7.60
2019-04-26T17:52:02.010Z,7.60
2019-04-26T17:53:26.095Z,7.60
2019-04-26T17:54:45.681Z,7.50
2019-04-26T17:55:45.810Z,7.50
2019-04-26T17:57:00.408Z,7.50
2019-04-26T17:58:17.251Z,7.50
2019-04-26T17:59:35.854Z,7.50
2019-04-26T18:00:45.752Z,7.50
2019-04-26T18:02:01.096Z,7.50
2019-04-26T18:03:14.961Z,7.50
2019-04-26T18:04:34.446Z,7.50
2019-04-26T18:05:56.545Z,7.50
2019-04-26T18:07:05.094Z,7.50
2019-04-26T18:08:33.864Z,7.50
2019-04-26T18:09:41.418Z,7.50
2019-04-26T18:10:43.301Z,7.40
2019-04-26T18:12:01.714Z,7.50
2019-04-26T18:13:16.238Z,7.40
2019-04-26T18:14:30.437Z,7.40
2019-04-26T18:15:45.149Z,7.40
2019-04-26T18:17:01.466Z,7.40
2019-04-26T18:18:20.732Z,7.40
2019-04-26T18:19:38.390Z,7.40
2019-04-26T18:20:59.172Z,7.50
2019-04-26T18:22:14.693Z,7.40
2019-04-26T18:23:30.431Z,7.50
2019-04-26T18:24:43.179Z,7.50
2019-04-26T18:25:56.531Z,7.50
2019-04-26T18:27:09.798Z,7.50
2019-04-26T18:28:23.081Z,7.50
2019-04-26T18:29:36.361Z,7.50
2019-04-26T18:30:49.627Z,7.40
2019-04-26T18:32:04.464Z,7.50
2019-04-26T18:33:24.162Z,7.50
2019-04-26T18:34:37.215Z,7.50
2019-04-26T18:35:49.225Z,7.50
2019-04-26T18:37:06.905Z,7.50
2019-04-26T18:38:19.076Z,7.50
2019-04-26T18:39:33.176Z,7.50
2019-04-26T18:41:00.178Z,7.50
2019-04-26T18:42:02.868Z,7.50
2019-04-26T18:43:21.667Z,7.50
2019-04-26T18:44:36.979Z,7.50
2019-04-26T18:45:48.715Z,7.50
2019-04-26T18:47:06.894Z,7.50
2019-04-26T18:48:20.156Z,7.50
2019-04-26T18:49:33.418Z,7.50
2019-04-26T18:50:46.711Z,7.50
2019-04-26T18:51:59.994Z,7.50
2019-04-26T18:53:14.904Z,7.50
2019-04-26T18:54:36.416Z,7.40
2019-04-26T18:55:50.881Z,7.40
2019-04-26T18:57:04.173Z,7.40
2019-04-26T18:58:17.493Z,7.40
2019-04-26T18:59:30.757Z,7.40
2019-04-26T19:00:44.289Z,7.40
2019-04-26T19:01:57.556Z,7.40
2019-04-26T19:03:13.367Z,7.40
2019-04-26T19:04:25.812Z,7.40
2019-04-26T19:05:39.333Z,7.40
2019-04-26T19:06:52.765Z,7.40
2019-04-26T19:08:07.673Z,7.40
2019-04-26T19:09:23.884Z,7.50
2019-04-26T19:10:37.145Z,7.40
2019-04-26T19:11:52.885Z,7.40
2019-04-26T19:13:23.875Z,7.50
2019-04-26T19:15:02.694Z,7.50
2019-04-26T19:16:17.048Z,7.50
2019-04-26T19:17:46.481Z,7.50
2019-04-26T19:19:22.745Z,7.50
2019-04-26T19:20:37.353Z,7.50
2019-04-26T19:22:00.715Z,7.40
2019-04-26T19:23:13.423Z,7.50
2019-04-26T19:24:26.706Z,7.40
2019-04-26T19:25:41.201Z,7.40
2019-04-26T19:26:54.924Z,7.40
2019-04-26T19:28:08.441Z,7.50
2019-04-26T19:29:29.364Z,7.40
2019-04-26T19:30:39.904Z,7.50
2019-04-26T19:31:52.322Z,7.50
2019-04-26T19:33:10.114Z,7.50
2019-04-26T19:34:21.930Z,7.50
2019-04-26T19:35:39.289Z,7.50
2019-04-26T19:36:52.483Z,7.50
2019-04-26T19:38:07.391Z,7.50
2019-04-26T19:39:30.434Z,7.50
2019-04-26T19:40:39.366Z,7.50
2019-04-26T19:41:57.340Z,7.50
2019-04-26T19:43:09.138Z,7.50
2019-04-26T19:44:24.077Z,7.60
2019-04-26T19:45:45.844Z,7.60
2019-04-26T19:47:06.820Z,7.50
2019-04-26T19:48:22.975Z,7.50
2019-04-26T19:49:39.012Z,7.60
2019-04-26T19:50:54.280Z,7.60
2019-04-26T19:52:18.176Z,7.60
2019-04-26T19:53:35.728Z,7.50
2019-04-26T19:54:53.280Z,7.50
2019-04-26T19:56:24.609Z,7.50
2019-04-26T19:57:39.038Z,7.50
2019-04-26T19:58:57.597Z,7.60
2019-04-26T20:00:08.414Z,7.60
2019-04-26T20:01:24.862Z,7.60
2019-04-26T20:02:39.250Z,7.60
2019-04-26T20:03:55.299Z,7.60
2019-04-26T20:05:08.209Z,7.50
2019-04-26T20:06:21.481Z,7.50
2019-04-26T20:07:34.769Z,7.50
2019-04-26T20:08:49.700Z,7.60
2019-04-26T20:10:05.137Z,7.50
2019-04-26T20:11:20.086Z,7.50
2019-04-26T20:12:37.960Z,7.50
2019-04-26T20:13:51.927Z,7.50
2019-04-26T20:15:07.247Z,7.50
2019-04-26T20:16:22.654Z,7.40
2019-04-26T20:17:36.276Z,7.40
2019-04-26T20:18:50.237Z,7.40
2019-04-26T20:20:16.548Z,7.40
2019-04-26T20:21:21.816Z,7.40
2019-04-26T20:22:35.267Z,7.40
2019-04-26T20:23:48.528Z,7.40
2019-04-26T20:25:02.448Z,7.30
2019-04-26T20:26:15.841Z,7.40
2019-04-26T20:27:29.130Z,7.40
2019-04-26T20:28:42.529Z,7.40
2019-04-26T20:29:55.785Z,7.40
2019-04-26T20:31:26.021Z,7.40
2019-04-26T20:32:44.413Z,7.30
2019-04-26T20:33:55.974Z,7.30
2019-04-26T20:35:14.110Z,7.30
2019-04-26T20:36:27.456Z,7.30
2019-04-26T20:37:41.594Z,7.30
2019-04-26T20:38:55.977Z,7.30
2019-04-26T20:40:17.956Z,7.30
2019-04-26T20:41:24.467Z,7.30
2019-04-26T20:42:37.969Z,7.30
2019-04-26T20:44:04.728Z,7.40
2019-04-26T20:45:08.432Z,7.30
2019-04-26T20:46:24.916Z,7.30
2019-04-26T20:47:36.465Z,7.30
2019-04-26T20:48:49.719Z,7.30
2019-04-26T20:50:04.165Z,7.30
2019-04-26T20:51:18.272Z,7.30
2019-04-26T20:52:32.185Z,7.30
2019-04-26T20:53:45.527Z,7.30
2019-04-26T20:54:59.888Z,7.40
2019-04-26T20:56:18.404Z,7.30
2019-04-26T20:57:31.269Z,7.30
2019-04-26T20:58:46.836Z,7.30
2019-04-26T21:00:01.535Z,7.30
2019-04-26T21:01:14.301Z,7.30
2019-04-26T21:02:27.719Z,7.30
2019-04-26T21:03:42.859Z,7.30
2019-04-26T21:04:56.507Z,7.30
2019-04-26T21:06:11.434Z,7.30
2019-04-26T21:07:24.829Z,7.30
2019-04-26T21:08:38.084Z,7.20
2019-04-26T21:09:51.765Z,7.30
2019-04-26T21:11:05.036Z,7.20
2019-04-26T21:12:18.696Z,7.30
2019-04-26T21:13:32.476Z,7.30
2019-04-26T21:14:45.797Z,7.30
2019-04-26T21:16:03.529Z,7.30
2019-04-26T21:17:14.070Z,7.30
2019-04-26T21:18:27.316Z,7.30
2019-04-26T21:19:41.701Z,7.30
2019-04-26T21:20:55.336Z,7.30
2019-04-26T21:22:08.620Z,7.30
2019-04-26T21:23:22.314Z,7.30
2019-04-26T21:24:37.341Z,7.30
2019-04-26T21:25:55.357Z,7.30
2019-04-26T21:27:10.255Z,7.30
2019-04-26T21:28:42.659Z,7.30
2019-04-26T21:30:13.541Z,7.40
2019-04-26T21:31:31.477Z,7.30
2019-04-26T21:32:56.044Z,7.30
2019-04-26T21:34:12.532Z,7.30
2019-04-26T21:35:34.514Z,7.30
2019-04-26T21:37:01.303Z,7.40
2019-04-26T21:38:16.196Z,7.30
2019-04-26T21:39:44.188Z,7.30
2019-04-26T21:41:10.931Z,7.30
2019-04-26T21:42:20.562Z,7.40
2019-04-26T21:43:34.827Z,7.30
2019-04-26T21:44:51.524Z,7.30
2019-04-26T21:46:08.461Z,7.30
2019-04-26T21:47:17.107Z,7.30
2019-04-26T21:48:30.360Z,7.40
2019-04-26T21:49:43.624Z,7.30
2019-04-26T21:50:56.892Z,7.30
2019-04-26T21:52:10.167Z,7.30
2019-04-26T21:53:24.170Z,7.30
2019-04-26T21:54:37.431Z,7.40
2019-04-26T21:55:50.683Z,7.30
2019-04-26T21:57:03.954Z,7.30
2019-04-26T21:58:17.219Z,7.40
2019-04-26T21:59:35.208Z,7.30
2019-04-26T22:00:50.216Z,7.40
2019-04-26T22:02:03.494Z,7.30
2019-04-26T22:03:17.016Z,7.40
2019-04-26T22:04:35.537Z,7.30
2019-04-26T22:05:49.709Z,7.30
2019-04-26T22:07:05.218Z,7.40
2019-04-26T22:08:22.789Z,7.40
2019-04-26T22:09:49.906Z,7.40
2019-04-26T22:11:03.649Z,7.40
2019-04-26T22:12:17.107Z,7.30
2019-04-26T22:13:48.028Z,7.40
2019-04-26T22:15:03.526Z,7.40
2019-04-26T22:16:33.473Z,7.40
2019-04-26T22:17:40.682Z,7.40
2019-04-26T22:18:57.761Z,7.30
2019-04-26T22:20:14.455Z,7.40
2019-04-26T22:21:29.943Z,7.40
2019-04-26T22:23:02.939Z,7.40
2019-04-26T22:24:20.481Z,7.40
2019-04-26T22:25:35.388Z,7.40
2019-04-26T22:26:48.699Z,7.40
2019-04-26T22:28:03.370Z,7.40
2019-04-26T22:29:16.951Z,7.40
2019-04-26T22:30:30.238Z,7.40
2019-04-26T22:31:43.499Z,7.30
2019-04-26T22:32:58.439Z,7.30
2019-04-26T22:34:18.701Z,7.30
2019-04-26T22:35:32.306Z,7.30
2019-04-26T22:36:48.425Z,7.30
2019-04-26T22:38:01.744Z,7.30
2019-04-26T22:39:20.800Z,7.30
2019-04-26T22:40:34.130Z,7.30
2019-04-26T22:41:47.386Z,7.30
2019-04-26T22:43:20.105Z,7.30
2019-04-26T22:44:36.776Z,7.30
2019-04-26T22:45:54.482Z,7.30
2019-04-26T22:47:21.164Z,7.30
2019-04-26T22:48:36.086Z,7.30
2019-04-26T22:49:49.338Z,7.30
2019-04-26T22:51:04.490Z,7.30
2019-04-26T22:52:17.774Z,7.30
2019-04-26T22:53:32.746Z,7.30
2019-04-26T22:54:46.769Z,7.30
2019-04-26T22:56:01.413Z,7.30
2019-04-26T22:57:16.393Z,7.30
2019-04-26T22:58:29.864Z,7.30
2019-04-26T22:59:49.564Z,7.40
2019-04-26T23:00:58.440Z,7.40
2019-04-26T23:02:18.193Z,7.40
2019-04-26T23:03:29.007Z,7.40
2019-04-26T23:04:42.827Z,7.30
2019-04-26T23:05:56.086Z,7.30
2019-04-26T23:07:10.994Z,7.40
2019-04-26T23:08:24.333Z,7.40
2019-04-26T23:09:37.741Z,7.40
2019-04-26T23:10:53.094Z,7.40
2019-04-26T23:12:25.081Z,7.40
2019-04-26T23:13:37.817Z,7.40
2019-04-26T23:15:09.620Z,7.40
2019-04-26T23:16:24.520Z,7.40
2019-04-26T23:17:51.552Z,7.50
2019-04-26T23:19:24.843Z,7.50
2019-04-26T23:20:45.119Z,7.50
2019-04-26T23:21:59.651Z,7.50
2019-04-26T23:23:29.337Z,7.50
2019-04-26T23:24:42.771Z,7.40
2019-04-26T23:25:57.568Z,7.50
2019-04-26T23:27:14.882Z,7.50
2019-04-26T23:28:27.741Z,7.50
2019-04-26T23:29:40.944Z,7.40
2019-04-26T23:30:54.266Z,7.50
2019-04-26T23:32:07.599Z,7.50
2019-04-26T23:33:20.864Z,7.50
2019-04-26T23:34:34.390Z,7.50
2019-04-26T23:35:47.892Z,7.50
2019-04-26T23:37:03.101Z,7.50
2019-04-26T23:38:16.566Z,7.50
2019-04-26T23:39:29.823Z,7.50
2019-04-26T23:40:43.090Z,7.50
2019-04-26T23:41:56.349Z,7.50
2019-04-26T23:43:09.632Z,7.50
2019-04-26T23:44:23.269Z,7.50
2019-04-26T23:45:36.600Z,7.50
2019-04-26T23:46:49.872Z,7.50
2019-04-26T23:48:03.603Z,7.60
2019-04-26T23:49:19.205Z,7.60
2019-04-26T23:50:33.963Z,7.60
2019-04-26T23:51:47.085Z,7.60
2019-04-26T23:53:00.348Z,7.60
2019-04-26T23:54:13.772Z,7.60
2019-04-26T23:55:27.157Z,7.60
2019-04-26T23:56:40.412Z,7.60
2019-04-26T23:57:53.664Z,7.60
2019-04-26T23:59:06.940Z,7.60
